Terminal Aerodrome Forecast
Issued by NWS

Home | Current Version | Previous Version | Text Only | Print | Product List | Glossary On
Versions: 1 2 3 4 5 6 7 8 9 10 11 12 13 14 15
000
FTUS41 KBTV 241700
TAFPBG
TAF
KPBG 241725Z 2418/2518 31020G30KT P6SM SKC
     FM242200 32012G20KT P6SM SKC
     FM250100 32004KT P6SM SKC
     FM250900 05005KT P6SM SCT150
     FM251500 06005KT P6SM BKN100=

USA.gov is the U.S. government's official web portal to all federal, state and local government web resources and services.